Aviation Digital Data Service (ADDS)

Output produced by METARs form (1335 UTC 19 February 2020)
found at http://aviationweather.gov/metar/data/
 
METAR text: KCVH 191335Z AUTO 00000KT 10SM CLR 01/M02 A3011 RMK A01
Conditions at: KCVH (HOLLISTER MUNI , CA, US) observed 1335 UTC 19 February 2020
Temperature: 1.0°C (34°F)
Dewpoint: -2.0°C (28°F) [RH = 80%]
Pressure (altimeter): 30.11 inches Hg (1019.7 mb)
Winds: calm
Visibility: 10 or more miles (16+ km)
Ceiling: at least 12,000 feet AGL
Clouds: sky clear below 12,000 feet AGL
Weather: automated observation with no human augmentation;
there may or may not be significant weather present at this time